createdAt,value
2017-09-17T00:01:03.990Z,0
2017-09-17T00:02:13.007Z,0
2017-09-17T00:03:22.345Z,0
2017-09-17T00:04:31.361Z,0
2017-09-17T00:05:40.378Z,0
2017-09-17T00:06:49.074Z,0
2017-09-17T00:07:58.091Z,0
2017-09-17T00:09:07.108Z,0
2017-09-17T00:10:15.805Z,0
2017-09-17T00:11:24.824Z,0
2017-09-17T00:12:34.159Z,0
2017-09-17T00:13:43.174Z,0
2017-09-17T00:14:52.835Z,0
2017-09-17T00:16:01.850Z,0
2017-09-17T00:17:11.189Z,0
2017-09-17T00:18:19.884Z,0
2017-09-17T00:19:29.246Z,0
2017-09-17T00:20:37.940Z,0
2017-09-17T00:21:46.960Z,0
2017-09-17T00:22:56.293Z,0
2017-09-17T00:24:04.989Z,0
2017-09-17T00:25:14.325Z,0
2017-09-17T00:26:23.340Z,0
2017-09-17T00:27:32.355Z,0
2017-09-17T00:28:42.011Z,0
2017-09-17T00:29:51.668Z,0
2017-09-17T00:31:01.010Z,0
2017-09-17T00:32:10.344Z,0
2017-09-17T00:33:19.357Z,0
2017-09-17T00:34:28.379Z,0
2017-09-17T00:35:37.394Z,0
2017-09-17T00:36:46.410Z,0
2017-09-17T00:37:55.107Z,0
2017-09-17T00:39:03.803Z,0
2017-09-17T00:40:12.819Z,0
2017-09-17T00:41:22.476Z,0
2017-09-17T00:42:31.495Z,0
2017-09-17T00:43:40.829Z,0
2017-09-17T00:44:50.174Z,0
2017-09-17T00:45:59.187Z,0
2017-09-17T00:47:08.846Z,0
2017-09-17T00:48:17.541Z,0
2017-09-17T00:49:26.236Z,0
2017-09-17T00:50:35.893Z,0
2017-09-17T00:51:45.227Z,0
2017-09-17T00:52:53.925Z,0
2017-09-17T00:54:02.947Z,0
2017-09-17T00:55:12.602Z,0
2017-09-17T00:56:21.620Z,0
2017-09-17T00:57:30.636Z,0
2017-09-17T00:58:39.973Z,0
2017-09-17T00:59:49.308Z,0
2017-09-17T01:00:58.323Z,0
2017-09-17T01:02:07.666Z,0
2017-09-17T01:03:16.999Z,0
2017-09-17T01:04:26.014Z,0
2017-09-17T01:05:35.030Z,0
2017-09-17T01:06:44.050Z,0
2017-09-17T01:07:53.064Z,0
2017-09-17T01:09:02.077Z,0
2017-09-17T01:10:10.771Z,0
2017-09-17T01:11:19.786Z,0
2017-09-17T01:12:28.805Z,0
2017-09-17T01:13:38.461Z,0
2017-09-17T01:14:47.155Z,0
2017-09-17T01:15:56.817Z,0
2017-09-17T01:17:05.514Z,0
2017-09-17T01:18:14.848Z,0
2017-09-17T01:19:24.181Z,0
2017-09-17T01:20:33.517Z,0
2017-09-17T01:21:42.533Z,0
2017-09-17T01:22:52.187Z,0
2017-09-17T01:24:01.525Z,0
2017-09-17T01:25:10.541Z,0
2017-09-17T01:26:19.883Z,0
2017-09-17T01:27:28.580Z,0
2017-09-17T01:28:37.918Z,0
2017-09-17T01:29:46.936Z,0
2017-09-17T01:30:55.950Z,0
2017-09-17T01:32:05.922Z,0
2017-09-17T01:33:15.579Z,0
2017-09-17T01:34:25.235Z,0
2017-09-17T01:35:34.891Z,0
2017-09-17T01:36:44.868Z,0
2017-09-17T01:37:54.204Z,0
2017-09-17T01:39:03.543Z,0
2017-09-17T01:40:12.557Z,0
2017-09-17T01:41:21.893Z,0
2017-09-17T01:42:30.589Z,0
2017-09-17T01:43:39.285Z,0
2017-09-17T01:44:48.302Z,0
2017-09-17T01:45:57.328Z,0
2017-09-17T01:47:06.660Z,0
2017-09-17T01:48:15.996Z,0
2017-09-17T01:49:24.690Z,0
2017-09-17T01:50:33.706Z,0
2017-09-17T01:51:43.041Z,0
2017-09-17T01:52:51.738Z,0
2017-09-17T01:54:00.752Z,0
2017-09-17T01:55:10.727Z,0
2017-09-17T01:56:19.745Z,0
2017-09-17T01:57:28.761Z,0
2017-09-17T01:58:38.097Z,0
2017-09-17T01:59:47.432Z,0
2017-09-17T02:00:56.446Z,0
2017-09-17T02:02:06.424Z,0
2017-09-17T02:03:15.759Z,0
2017-09-17T02:04:24.773Z,0
2017-09-17T02:05:34.742Z,0
2017-09-17T02:06:44.075Z,0
2017-09-17T02:07:53.089Z,0
2017-09-17T02:09:02.750Z,0
2017-09-17T02:10:12.410Z,0
2017-09-17T02:11:22.067Z,0
2017-09-17T02:12:31.404Z,0
2017-09-17T02:13:40.417Z,0
2017-09-17T02:14:49.430Z,0
2017-09-17T02:15:58.771Z,0
2017-09-17T02:17:08.746Z,0
2017-09-17T02:18:17.760Z,0
2017-09-17T02:19:26.775Z,0
2017-09-17T02:20:35.793Z,0
2017-09-17T02:21:45.128Z,0
2017-09-17T02:22:54.179Z,0
2017-09-17T02:24:03.838Z,0
2017-09-17T02:25:13.490Z,0
2017-09-17T02:26:23.148Z,0
2017-09-17T02:27:32.482Z,0
2017-09-17T02:28:41.501Z,0
2017-09-17T02:29:50.515Z,0
2017-09-17T02:30:59.210Z,0
2017-09-17T02:32:08.870Z,0
2017-09-17T02:33:17.884Z,0
2017-09-17T02:34:27.540Z,0
2017-09-17T02:35:36.565Z,0
2017-09-17T02:36:46.222Z,0
2017-09-17T02:37:55.575Z,0
2017-09-17T02:39:05.229Z,0
2017-09-17T02:40:14.882Z,0
2017-09-17T02:41:24.225Z,0
2017-09-17T02:42:34.208Z,0
2017-09-17T02:43:43.545Z,0
2017-09-17T02:44:53.202Z,0
2017-09-17T02:46:02.216Z,0
2017-09-17T02:47:11.552Z,0
2017-09-17T02:48:20.566Z,0
2017-09-17T02:49:29.911Z,0
2017-09-17T02:50:38.929Z,0
2017-09-17T02:51:47.945Z,0
2017-09-17T02:52:57.285Z,0
2017-09-17T02:54:05.983Z,0
2017-09-17T02:55:14.999Z,0
2017-09-17T02:56:24.013Z,0
2017-09-17T02:57:33.027Z,0
2017-09-17T02:58:42.359Z,0
2017-09-17T02:59:51.055Z,0
2017-09-17T03:01:00.392Z,0
2017-09-17T03:02:09.090Z,0
2017-09-17T03:03:18.108Z,0
2017-09-17T03:04:27.121Z,0
2017-09-17T03:05:36.780Z,0
2017-09-17T03:06:46.436Z,0
2017-09-17T03:07:55.774Z,0
2017-09-17T03:09:04.468Z,0
2017-09-17T03:10:13.483Z,0
2017-09-17T03:11:22.824Z,0
2017-09-17T03:12:31.851Z,0
2017-09-17T03:13:41.188Z,0
2017-09-17T03:14:50.201Z,0
2017-09-17T03:16:00.179Z,0
2017-09-17T03:17:09.199Z,0
2017-09-17T03:18:17.893Z,0
2017-09-17T03:19:26.908Z,0
2017-09-17T03:20:35.633Z,0
2017-09-17T03:21:44.967Z,0
2017-09-17T03:22:54.943Z,0
2017-09-17T03:24:04.284Z,0
2017-09-17T03:25:13.949Z,0
2017-09-17T03:26:22.960Z,0
2017-09-17T03:27:31.973Z,0
2017-09-17T03:28:40.668Z,0
2017-09-17T03:29:51.010Z,0
2017-09-17T03:31:00.669Z,0
2017-09-17T03:32:10.325Z,0
2017-09-17T03:33:19.658Z,0
2017-09-17T03:34:28.996Z,0
2017-09-17T03:35:38.335Z,0
2017-09-17T03:36:47.991Z,0
2017-09-17T03:37:56.688Z,0
2017-09-17T03:39:06.025Z,0
2017-09-17T03:40:15.685Z,0
2017-09-17T03:41:25.656Z,0
2017-09-17T03:42:34.671Z,0
2017-09-17T03:43:43.691Z,0
2017-09-17T03:44:52.388Z,0
2017-09-17T03:46:01.405Z,0
2017-09-17T03:47:10.102Z,0
2017-09-17T03:48:19.115Z,0
2017-09-17T03:49:28.448Z,0
2017-09-17T03:50:37.144Z,0
2017-09-17T03:51:46.488Z,0
2017-09-17T03:52:55.181Z,0
2017-09-17T03:54:04.520Z,0
2017-09-17T03:55:13.853Z,0
2017-09-17T03:56:22.547Z,0
2017-09-17T03:57:32.202Z,0
2017-09-17T03:58:41.534Z,0
2017-09-17T03:59:50.550Z,0
2017-09-17T04:00:59.563Z,0
2017-09-17T04:02:08.580Z,0
2017-09-17T04:03:17.595Z,0
2017-09-17T04:04:26.290Z,0
2017-09-17T04:05:35.304Z,0
2017-09-17T04:06:45.278Z,0
2017-09-17T04:07:54.937Z,0
2017-09-17T04:09:04.595Z,0
2017-09-17T04:10:13.929Z,0
2017-09-17T04:11:23.265Z,0
2017-09-17T04:12:32.284Z,0
2017-09-17T04:13:41.945Z,0
2017-09-17T04:14:50.646Z,0
2017-09-17T04:15:59.985Z,0
2017-09-17T04:17:09.324Z,0
2017-09-17T04:18:18.339Z,0
2017-09-17T04:19:27.351Z,0
2017-09-17T04:20:36.366Z,0
2017-09-17T04:21:45.382Z,0
2017-09-17T04:22:54.394Z,0
2017-09-17T04:24:03.087Z,0
2017-09-17T04:25:12.107Z,0
2017-09-17T04:26:21.446Z,0
2017-09-17T04:27:31.101Z,0
2017-09-17T04:28:40.122Z,0
2017-09-17T04:29:49.468Z,0
2017-09-17T04:30:59.125Z,0
2017-09-17T04:32:07.824Z,0
2017-09-17T04:33:16.522Z,0
2017-09-17T04:34:25.540Z,0
2017-09-17T04:35:34.552Z,0
2017-09-17T04:36:43.245Z,0
2017-09-17T04:37:52.578Z,0
2017-09-17T04:39:01.277Z,0
2017-09-17T04:40:10.612Z,0
2017-09-17T04:41:19.630Z,0
2017-09-17T04:42:28.327Z,0
2017-09-17T04:43:37.659Z,0
2017-09-17T04:44:46.995Z,0
2017-09-17T04:45:56.336Z,0
2017-09-17T04:47:05.034Z,0
2017-09-17T04:48:14.051Z,0
2017-09-17T04:49:23.384Z,0
2017-09-17T04:50:32.081Z,0
2017-09-17T04:51:41.735Z,0
2017-09-17T04:52:51.069Z,0
2017-09-17T04:54:00.403Z,0
2017-09-17T04:55:09.098Z,0
2017-09-17T04:56:18.455Z,0
2017-09-17T04:57:28.426Z,0
2017-09-17T04:58:37.446Z,0
2017-09-17T04:59:46.783Z,0
2017-09-17T05:00:56.439Z,0
2017-09-17T05:02:05.135Z,0
2017-09-17T05:03:14.467Z,0
2017-09-17T05:04:23.483Z,0
2017-09-17T05:05:33.460Z,0
2017-09-17T05:06:42.796Z,0
2017-09-17T05:07:52.135Z,0
2017-09-17T05:09:00.833Z,0
2017-09-17T05:10:09.848Z,0
2017-09-17T05:11:19.185Z,0
2017-09-17T05:12:28.201Z,0
2017-09-17T05:13:37.537Z,0
2017-09-17T05:14:47.198Z,0
2017-09-17T05:15:56.214Z,0
2017-09-17T05:17:05.882Z,0
2017-09-17T05:18:15.216Z,0
2017-09-17T05:19:24.870Z,0
2017-09-17T05:20:34.205Z,0
2017-09-17T05:21:43.219Z,0
2017-09-17T05:22:52.554Z,0
2017-09-17T05:24:01.568Z,0
2017-09-17T05:25:10.582Z,0
2017-09-17T05:26:19.599Z,0
2017-09-17T05:27:28.933Z,0
2017-09-17T05:28:38.296Z,0
2017-09-17T05:29:47.311Z,0
2017-09-17T05:30:56.017Z,0
2017-09-17T05:32:05.033Z,0
2017-09-17T05:33:14.369Z,0
2017-09-17T05:34:24.025Z,0
2017-09-17T05:35:32.723Z,0
2017-09-17T05:36:42.060Z,0
2017-09-17T05:37:51.394Z,0
2017-09-17T05:39:00.411Z,0
2017-09-17T05:40:09.746Z,0
2017-09-17T05:41:19.115Z,0
2017-09-17T05:42:27.814Z,0
2017-09-17T05:43:37.467Z,0
2017-09-17T05:44:46.805Z,0
2017-09-17T05:45:55.505Z,0
2017-09-17T05:47:05.161Z,0
2017-09-17T05:48:14.495Z,0
2017-09-17T05:49:23.829Z,0
2017-09-17T05:50:33.162Z,5
2017-09-17T05:51:42.495Z,5
2017-09-17T05:52:51.192Z,5
2017-09-17T05:54:00.525Z,5
2017-09-17T05:55:09.537Z,5
2017-09-17T05:56:18.551Z,5
2017-09-17T05:57:28.210Z,5
2017-09-17T05:58:36.902Z,5
2017-09-17T05:59:46.234Z,5
2017-09-17T06:00:56.548Z,5
2017-09-17T06:02:05.565Z,5
2017-09-17T06:03:14.257Z,10
2017-09-17T06:04:22.952Z,10
2017-09-17T06:05:31.647Z,10
2017-09-17T06:06:40.670Z,10
2017-09-17T06:07:49.365Z,10
2017-09-17T06:08:59.020Z,10
2017-09-17T06:10:08.676Z,10
2017-09-17T06:11:17.372Z,15
2017-09-17T06:12:26.391Z,15
2017-09-17T06:13:36.051Z,15
2017-09-17T06:14:45.069Z,15
2017-09-17T06:15:54.721Z,15
2017-09-17T06:17:03.414Z,15
2017-09-17T06:18:13.070Z,15
2017-09-17T06:19:22.085Z,15
2017-09-17T06:20:31.422Z,15
2017-09-17T06:21:40.122Z,15
2017-09-17T06:22:49.139Z,15
2017-09-17T06:23:58.473Z,15
2017-09-17T06:25:07.489Z,15
2017-09-17T06:26:17.140Z,15
2017-09-17T06:27:26.155Z,15
2017-09-17T06:28:35.172Z,15
2017-09-17T06:29:43.868Z,15
2017-09-17T06:30:52.881Z,15
2017-09-17T06:32:01.578Z,15
2017-09-17T06:33:10.914Z,15
2017-09-17T06:34:19.932Z,15
2017-09-17T06:35:29.270Z,15
2017-09-17T06:36:37.966Z,15
2017-09-17T06:37:46.662Z,15
2017-09-17T06:38:56.322Z,15
2017-09-17T06:40:05.661Z,15
2017-09-17T06:41:14.997Z,15
2017-09-17T06:42:24.012Z,15
2017-09-17T06:43:33.344Z,15
2017-09-17T06:44:43.002Z,20
2017-09-17T06:45:52.333Z,20
2017-09-17T06:47:01.347Z,20
2017-09-17T06:48:11.320Z,20
2017-09-17T06:49:20.976Z,25
2017-09-17T06:50:29.671Z,40
2017-09-17T06:51:38.366Z,40
2017-09-17T06:52:47.381Z,45
2017-09-17T06:53:57.363Z,45
2017-09-17T06:55:06.698Z,45
2017-09-17T06:56:15.714Z,35
2017-09-17T06:57:25.074Z,45
2017-09-17T06:58:34.416Z,50
2017-09-17T06:59:43.434Z,45
2017-09-17T07:00:52.766Z,45
2017-09-17T07:02:01.784Z,50
2017-09-17T07:03:10.808Z,50
2017-09-17T07:04:19.504Z,50
2017-09-17T07:05:28.518Z,55
2017-09-17T07:06:37.541Z,55
2017-09-17T07:07:46.874Z,50
2017-09-17T07:08:55.579Z,55
2017-09-17T07:10:04.599Z,60
2017-09-17T07:11:13.291Z,75
2017-09-17T07:12:22.306Z,65
2017-09-17T07:13:31.322Z,65
2017-09-17T07:14:40.655Z,70
2017-09-17T07:15:49.672Z,80
2017-09-17T07:16:58.687Z,90
2017-09-17T07:18:08.662Z,80
2017-09-17T07:19:17.997Z,90
2017-09-17T07:20:27.014Z,95
2017-09-17T07:21:36.349Z,95
2017-09-17T07:22:45.363Z,95
2017-09-17T07:23:54.699Z,95
2017-09-17T07:25:03.713Z,95
2017-09-17T07:26:13.687Z,95
2017-09-17T07:27:23.342Z,95
2017-09-17T07:28:32.679Z,100
2017-09-17T07:29:42.658Z,100
2017-09-17T07:30:52.310Z,95
2017-09-17T07:32:01.648Z,105
2017-09-17T07:33:11.303Z,135
2017-09-17T07:34:20.319Z,170
2017-09-17T07:35:29.339Z,215
2017-09-17T07:36:38.355Z,165
2017-09-17T07:37:47.373Z,180
2017-09-17T07:38:57.031Z,190
2017-09-17T07:40:06.366Z,345
2017-09-17T07:41:15.067Z,695
2017-09-17T07:42:24.725Z,1010
2017-09-17T07:43:34.099Z,1035
2017-09-17T07:44:43.433Z,955
2017-09-17T07:45:52.770Z,990
2017-09-17T07:47:02.111Z,675
2017-09-17T07:48:11.128Z,740
2017-09-17T07:49:20.145Z,550
2017-09-17T07:50:30.125Z,1075
2017-09-17T07:51:38.823Z,1090
2017-09-17T07:52:47.522Z,1110
2017-09-17T07:53:56.221Z,1110
2017-09-17T07:55:05.885Z,1145
2017-09-17T07:56:15.228Z,1025
2017-09-17T07:57:24.886Z,790
2017-09-17T07:58:34.224Z,285
2017-09-17T07:59:43.244Z,395
2017-09-17T08:00:53.223Z,360
2017-09-17T08:02:02.562Z,370
2017-09-17T08:03:11.901Z,395
2017-09-17T08:04:21.239Z,410
2017-09-17T08:05:29.936Z,400
2017-09-17T08:06:38.956Z,730
2017-09-17T08:07:47.977Z,410
2017-09-17T08:08:57.013Z,345
2017-09-17T08:10:06.336Z,335
2017-09-17T08:11:16.323Z,340
2017-09-17T08:12:26.302Z,410
2017-09-17T08:13:35.323Z,400
2017-09-17T08:14:44.348Z,505
2017-09-17T08:15:53.047Z,430
2017-09-17T08:17:02.703Z,970
2017-09-17T08:18:11.402Z,990
2017-09-17T08:19:20.419Z,1040
2017-09-17T08:20:29.763Z,1105
2017-09-17T08:21:39.109Z,1140
2017-09-17T08:22:48.447Z,1105
2017-09-17T08:23:57.467Z,1120
2017-09-17T08:25:06.806Z,1150
2017-09-17T08:26:16.145Z,1090
2017-09-17T08:27:25.815Z,935
2017-09-17T08:28:34.840Z,515
2017-09-17T08:29:44.182Z,325
2017-09-17T08:30:53.205Z,220
2017-09-17T08:32:02.546Z,130
2017-09-17T08:33:11.565Z,105
2017-09-17T08:34:20.907Z,105
2017-09-17T08:35:29.929Z,105
2017-09-17T08:36:38.960Z,100
2017-09-17T08:37:48.305Z,100
2017-09-17T08:38:57.007Z,100
2017-09-17T08:40:05.707Z,100
2017-09-17T08:41:14.727Z,100
2017-09-17T08:42:23.748Z,100
2017-09-17T08:43:32.769Z,100
2017-09-17T08:44:42.105Z,95
2017-09-17T08:45:51.124Z,95
2017-09-17T08:47:00.787Z,95
2017-09-17T08:48:09.809Z,95
2017-09-17T08:49:19.145Z,100
2017-09-17T08:50:28.485Z,95
2017-09-17T08:51:37.509Z,95
2017-09-17T08:52:46.856Z,95
2017-09-17T08:53:56.192Z,105
2017-09-17T08:55:05.210Z,95
2017-09-17T08:56:14.553Z,100
2017-09-17T08:57:24.208Z,95
2017-09-17T08:58:34.182Z,95
2017-09-17T08:59:43.523Z,95
2017-09-17T09:00:53.181Z,95
2017-09-17T09:02:02.523Z,95
2017-09-17T09:03:12.507Z,95
2017-09-17T09:04:22.170Z,95
2017-09-17T09:05:31.187Z,100
2017-09-17T09:06:40.206Z,100
2017-09-17T09:07:49.548Z,95
2017-09-17T09:08:58.566Z,95
2017-09-17T09:10:07.267Z,100
2017-09-17T09:11:16.289Z,100
2017-09-17T09:12:25.631Z,105
2017-09-17T09:13:34.968Z,100
2017-09-17T09:14:43.990Z,105
2017-09-17T09:15:52.690Z,105
2017-09-17T09:17:01.709Z,105
2017-09-17T09:18:11.365Z,115
2017-09-17T09:19:20.389Z,130
2017-09-17T09:20:29.733Z,115
2017-09-17T09:21:38.432Z,125
2017-09-17T09:22:47.773Z,130
2017-09-17T09:23:56.787Z,115
2017-09-17T09:25:06.127Z,115
2017-09-17T09:26:14.825Z,135
2017-09-17T09:27:24.621Z,135
2017-09-17T09:28:33.638Z,150
2017-09-17T09:29:43.614Z,160
2017-09-17T09:30:52.955Z,210
2017-09-17T09:32:02.295Z,160
2017-09-17T09:33:11.312Z,195
2017-09-17T09:34:20.777Z,95
2017-09-17T09:35:30.135Z,175
2017-09-17T09:36:39.475Z,110
2017-09-17T09:37:48.814Z,550
2017-09-17T09:38:57.513Z,1280
2017-09-17T09:40:06.858Z,1265
2017-09-17T09:41:16.199Z,1320
2017-09-17T09:42:25.537Z,1420
2017-09-17T09:43:34.878Z,950
2017-09-17T09:44:44.216Z,1520
2017-09-17T09:45:53.555Z,1545
2017-09-17T09:47:02.576Z,1220
2017-09-17T09:48:11.916Z,550
2017-09-17T09:49:21.258Z,1605
2017-09-17T09:50:30.278Z,1170
2017-09-17T09:51:39.622Z,1505
2017-09-17T09:52:48.964Z,395
2017-09-17T09:53:58.306Z,1600
2017-09-17T09:55:07.649Z,1595
2017-09-17T09:56:16.988Z,140
2017-09-17T09:57:26.010Z,65
2017-09-17T09:58:35.678Z,75
2017-09-17T09:59:45.028Z,75
2017-09-17T10:00:54.695Z,45
2017-09-17T10:02:03.719Z,40
2017-09-17T10:03:12.743Z,40
2017-09-17T10:04:22.095Z,45
2017-09-17T10:05:30.801Z,40
2017-09-17T10:06:39.827Z,40
2017-09-17T10:07:48.530Z,50
2017-09-17T10:08:58.192Z,60
2017-09-17T10:10:07.213Z,80
2017-09-17T10:11:15.921Z,120
2017-09-17T10:12:24.623Z,170
2017-09-17T10:13:33.969Z,1115
2017-09-17T10:14:42.989Z,80
2017-09-17T10:15:51.692Z,45
2017-09-17T10:17:01.041Z,40
2017-09-17T10:18:11.024Z,45
2017-09-17T10:19:20.364Z,50
2017-09-17T10:20:29.657Z,70
2017-09-17T10:21:39.633Z,1625
2017-09-17T10:22:49.301Z,1615
2017-09-17T10:23:58.329Z,1630
2017-09-17T10:25:07.671Z,1700
2017-09-17T10:26:17.011Z,1675
2017-09-17T10:27:26.038Z,1745
2017-09-17T10:28:35.383Z,1265
2017-09-17T10:29:44.409Z,1415
2017-09-17T10:30:53.447Z,185
2017-09-17T10:32:02.787Z,245
2017-09-17T10:33:12.143Z,305
2017-09-17T10:34:21.538Z,450
2017-09-17T10:35:30.563Z,100
2017-09-17T10:36:39.910Z,115
2017-09-17T10:37:48.931Z,1720
2017-09-17T10:38:58.271Z,450
2017-09-17T10:40:07.620Z,315
2017-09-17T10:41:16.641Z,150
2017-09-17T10:42:25.345Z,365
2017-09-17T10:43:34.688Z,1660
2017-09-17T10:44:44.030Z,1605
2017-09-17T10:45:53.370Z,1665
2017-09-17T10:47:02.722Z,1640
2017-09-17T10:48:12.063Z,155
2017-09-17T10:49:20.766Z,350
2017-09-17T10:50:29.793Z,1600
2017-09-17T10:51:39.138Z,1580
2017-09-17T10:52:48.477Z,1560
2017-09-17T10:53:57.821Z,345
2017-09-17T10:55:07.188Z,200
2017-09-17T10:56:16.873Z,245
2017-09-17T10:57:26.215Z,120
2017-09-17T10:58:35.243Z,85
2017-09-17T10:59:44.590Z,90
2017-09-17T11:00:53.620Z,65
2017-09-17T11:02:02.961Z,55
2017-09-17T11:03:11.987Z,45
2017-09-17T11:04:21.012Z,40
2017-09-17T11:05:30.354Z,35
2017-09-17T11:06:39.700Z,35
2017-09-17T11:07:48.411Z,35
2017-09-17T11:08:57.446Z,35
2017-09-17T11:10:06.788Z,35
2017-09-17T11:11:16.451Z,35
2017-09-17T11:12:25.791Z,40
2017-09-17T11:13:34.811Z,45
2017-09-17T11:14:43.837Z,40
2017-09-17T11:15:52.538Z,35
2017-09-17T11:17:01.567Z,35
2017-09-17T11:18:10.912Z,40
2017-09-17T11:19:19.930Z,45
2017-09-17T11:20:29.270Z,50
2017-09-17T11:21:38.289Z,55
2017-09-17T11:22:46.988Z,60
2017-09-17T11:23:56.647Z,70
2017-09-17T11:25:05.668Z,90
2017-09-17T11:26:15.326Z,105
2017-09-17T11:27:24.661Z,110
2017-09-17T11:28:33.679Z,105
2017-09-17T11:29:43.023Z,155
2017-09-17T11:30:52.363Z,105
2017-09-17T11:32:01.065Z,320
2017-09-17T11:33:10.097Z,65
2017-09-17T11:34:19.761Z,105
2017-09-17T11:35:28.776Z,1595
2017-09-17T11:36:37.797Z,1635
2017-09-17T11:37:47.139Z,1160
2017-09-17T11:38:56.160Z,1785
2017-09-17T11:40:04.865Z,255
2017-09-17T11:41:13.887Z,555
2017-09-17T11:42:22.907Z,1705
2017-09-17T11:43:31.928Z,1685
2017-09-17T11:44:41.270Z,1530
2017-09-17T11:45:50.610Z,260
2017-09-17T11:47:00.595Z,1580
2017-09-17T11:48:09.616Z,1655
2017-09-17T11:49:18.315Z,1165
2017-09-17T11:50:27.331Z,275
2017-09-17T11:51:36.031Z,1355
2017-09-17T11:52:45.050Z,160
2017-09-17T11:53:55.035Z,295
2017-09-17T11:55:04.693Z,155
2017-09-17T11:56:13.716Z,200
2017-09-17T11:57:23.056Z,175
2017-09-17T11:58:31.756Z,130
2017-09-17T11:59:41.095Z,110
2017-09-17T12:00:50.436Z,110
2017-09-17T12:01:59.777Z,140
2017-09-17T12:03:09.115Z,135
2017-09-17T12:04:18.135Z,100
2017-09-17T12:05:27.797Z,105
2017-09-17T12:06:37.140Z,100
2017-09-17T12:07:46.490Z,105
2017-09-17T12:08:55.190Z,140
2017-09-17T12:10:04.210Z,135
2017-09-17T12:11:13.231Z,135
2017-09-17T12:12:22.572Z,100
2017-09-17T12:13:31.593Z,105
2017-09-17T12:14:40.613Z,95
2017-09-17T12:15:50.273Z,80
2017-09-17T12:16:59.611Z,55
2017-09-17T12:18:08.630Z,55
2017-09-17T12:19:17.650Z,55
2017-09-17T12:20:26.985Z,50
2017-09-17T12:21:35.686Z,50
2017-09-17T12:22:44.703Z,55
2017-09-17T12:23:53.739Z,60
2017-09-17T12:25:02.753Z,60
2017-09-17T12:26:11.771Z,75
2017-09-17T12:27:20.787Z,85
2017-09-17T12:28:29.486Z,120
2017-09-17T12:29:38.825Z,125
2017-09-17T12:30:48.485Z,105
2017-09-17T12:31:57.515Z,105
2017-09-17T12:33:06.530Z,110
2017-09-17T12:34:15.872Z,105
2017-09-17T12:35:24.896Z,125
2017-09-17T12:36:33.917Z,115
2017-09-17T12:37:43.273Z,115
2017-09-17T12:38:51.970Z,115
2017-09-17T12:40:00.671Z,115
2017-09-17T12:41:09.690Z,110
2017-09-17T12:42:18.710Z,110
2017-09-17T12:43:28.062Z,110
2017-09-17T12:44:38.052Z,100
2017-09-17T12:45:47.070Z,90
2017-09-17T12:46:55.772Z,85
2017-09-17T12:48:04.791Z,80
2017-09-17T12:49:13.811Z,80
2017-09-17T12:50:23.150Z,80
2017-09-17T12:51:31.850Z,75
2017-09-17T12:52:41.188Z,75
2017-09-17T12:53:50.207Z,75
2017-09-17T12:54:59.549Z,70
2017-09-17T12:56:08.568Z,75
2017-09-17T12:57:18.226Z,75
2017-09-17T12:58:26.924Z,70
2017-09-17T12:59:36.583Z,70
2017-09-17T13:00:45.600Z,70
2017-09-17T13:01:54.940Z,70
2017-09-17T13:03:03.956Z,70
2017-09-17T13:04:13.296Z,75
2017-09-17T13:05:21.997Z,75
2017-09-17T13:06:31.015Z,75
2017-09-17T13:07:39.714Z,75
2017-09-17T13:08:49.053Z,70
2017-09-17T13:09:58.072Z,70
2017-09-17T13:11:06.770Z,75
2017-09-17T13:12:15.468Z,60
2017-09-17T13:13:24.490Z,85
2017-09-17T13:14:33.510Z,75
2017-09-17T13:15:42.845Z,75
2017-09-17T13:16:52.182Z,80
2017-09-17T13:18:01.520Z,75
2017-09-17T13:19:10.220Z,65
2017-09-17T13:20:19.558Z,50
2017-09-17T13:21:28.897Z,55
2017-09-17T13:22:37.913Z,60
2017-09-17T13:23:46.930Z,60
2017-09-17T13:24:55.947Z,55
2017-09-17T13:26:05.283Z,55
2017-09-17T13:27:13.981Z,50
2017-09-17T13:28:23.638Z,50
2017-09-17T13:29:32.335Z,45
2017-09-17T13:30:41.355Z,45
2017-09-17T13:31:51.019Z,40
2017-09-17T13:33:00.362Z,40
2017-09-17T13:34:10.016Z,35
2017-09-17T13:35:18.715Z,30
2017-09-17T13:36:28.060Z,25
2017-09-17T13:37:36.755Z,25
2017-09-17T13:38:45.453Z,20
2017-09-17T13:39:54.473Z,20
2017-09-17T13:41:03.811Z,20
2017-09-17T13:42:12.831Z,20
2017-09-17T13:43:22.176Z,35
2017-09-17T13:44:31.189Z,40
2017-09-17T13:45:40.206Z,45
2017-09-17T13:46:48.901Z,50
2017-09-17T13:47:57.917Z,50
2017-09-17T13:49:07.260Z,50
2017-09-17T13:50:16.607Z,55
2017-09-17T13:51:25.944Z,55
2017-09-17T13:52:34.960Z,75
2017-09-17T13:53:43.659Z,80
2017-09-17T13:54:53.005Z,75
2017-09-17T13:56:01.701Z,70
2017-09-17T13:57:10.724Z,65
2017-09-17T13:58:19.739Z,60
2017-09-17T13:59:28.755Z,60
2017-09-17T14:00:37.771Z,60
2017-09-17T14:01:47.110Z,55
2017-09-17T14:02:56.131Z,50
2017-09-17T14:04:05.469Z,50
2017-09-17T14:05:14.805Z,40
2017-09-17T14:06:23.823Z,35
2017-09-17T14:07:32.844Z,35
2017-09-17T14:08:42.177Z,40
2017-09-17T14:09:51.514Z,40
2017-09-17T14:11:00.534Z,45
2017-09-17T14:12:09.230Z,35
2017-09-17T14:13:19.207Z,35
2017-09-17T14:14:28.225Z,35
2017-09-17T14:15:36.921Z,35
2017-09-17T14:16:46.257Z,30
2017-09-17T14:17:55.273Z,30
2017-09-17T14:19:04.607Z,30
2017-09-17T14:20:13.622Z,40
2017-09-17T14:21:23.282Z,45
2017-09-17T14:22:32.618Z,40
2017-09-17T14:23:41.955Z,40
2017-09-17T14:24:51.949Z,35
2017-09-17T14:26:01.295Z,45
2017-09-17T14:27:10.638Z,45
2017-09-17T14:28:19.977Z,45
2017-09-17T14:29:28.673Z,35
2017-09-17T14:30:38.013Z,40
2017-09-17T14:31:46.709Z,30
2017-09-17T14:32:56.371Z,35
2017-09-17T14:34:05.068Z,40
2017-09-17T14:35:14.085Z,45
2017-09-17T14:36:23.099Z,35
2017-09-17T14:37:32.435Z,30
2017-09-17T14:38:41.776Z,30
2017-09-17T14:39:50.792Z,35
2017-09-17T14:41:00.136Z,35
2017-09-17T14:42:09.789Z,35
2017-09-17T14:43:18.806Z,35
2017-09-17T14:44:27.504Z,35
2017-09-17T14:45:36.521Z,35
2017-09-17T14:46:45.858Z,40
2017-09-17T14:47:54.877Z,45
2017-09-17T14:49:04.216Z,45
2017-09-17T14:50:13.553Z,45
2017-09-17T14:51:22.891Z,45
2017-09-17T14:52:32.229Z,40
2017-09-17T14:53:41.884Z,40
2017-09-17T14:54:51.218Z,40
2017-09-17T14:56:00.238Z,40
2017-09-17T14:57:09.254Z,40
2017-09-17T14:58:17.951Z,40
2017-09-17T14:59:27.293Z,40
2017-09-17T15:00:36.636Z,40
2017-09-17T15:01:45.654Z,45
2017-09-17T15:02:55.000Z,45
2017-09-17T15:04:04.027Z,40
2017-09-17T15:05:13.044Z,40
2017-09-17T15:06:22.062Z,40
2017-09-17T15:07:31.084Z,40
2017-09-17T15:08:40.740Z,35
2017-09-17T15:09:50.078Z,35
2017-09-17T15:10:58.778Z,35
2017-09-17T15:12:07.795Z,35
2017-09-17T15:13:17.131Z,35
2017-09-17T15:14:26.470Z,35
2017-09-17T15:15:35.805Z,35
2017-09-17T15:16:44.501Z,35
2017-09-17T15:17:53.837Z,35
2017-09-17T15:19:03.170Z,30
2017-09-17T15:20:12.511Z,30
2017-09-17T15:21:21.528Z,30
2017-09-17T15:22:30.862Z,20
2017-09-17T15:23:40.209Z,20
2017-09-17T15:24:49.543Z,20
2017-09-17T15:25:58.240Z,20
2017-09-17T15:27:07.256Z,20
2017-09-17T15:28:15.950Z,20
2017-09-17T15:29:24.644Z,20
2017-09-17T15:30:34.297Z,20
2017-09-17T15:31:42.994Z,15
2017-09-17T15:32:52.008Z,20
2017-09-17T15:34:00.707Z,20
2017-09-17T15:35:09.403Z,15
2017-09-17T15:36:18.738Z,15
2017-09-17T15:37:27.433Z,15
2017-09-17T15:38:36.769Z,15
2017-09-17T15:39:46.108Z,15
2017-09-17T15:40:55.127Z,15
2017-09-17T15:42:04.466Z,15
2017-09-17T15:43:14.124Z,15
2017-09-17T15:44:23.140Z,15
2017-09-17T15:45:32.795Z,15
2017-09-17T15:46:41.493Z,15
2017-09-17T15:47:50.510Z,15
2017-09-17T15:48:59.208Z,20
2017-09-17T15:50:07.907Z,15
2017-09-17T15:51:16.603Z,15
2017-09-17T15:52:26.257Z,15
2017-09-17T15:53:35.276Z,15
2017-09-17T15:54:44.616Z,15
2017-09-17T15:55:53.958Z,15
2017-09-17T15:57:02.974Z,15
2017-09-17T15:58:11.995Z,15
2017-09-17T15:59:21.003Z,15
2017-09-17T16:00:30.021Z,15
2017-09-17T16:01:39.036Z,15
2017-09-17T16:02:48.372Z,15
2017-09-17T16:03:57.708Z,15
2017-09-17T16:05:07.049Z,15
2017-09-17T16:06:16.392Z,15
2017-09-17T16:07:25.403Z,15
2017-09-17T16:08:35.706Z,15
2017-09-17T16:09:45.050Z,15
2017-09-17T16:10:54.384Z,15
2017-09-17T16:12:03.081Z,15
2017-09-17T16:13:12.417Z,15
2017-09-17T16:14:21.753Z,15
2017-09-17T16:15:30.454Z,15
2017-09-17T16:16:40.429Z,15
2017-09-17T16:17:49.447Z,15
2017-09-17T16:18:58.464Z,15
2017-09-17T16:20:08.116Z,10
2017-09-17T16:21:16.814Z,10
2017-09-17T16:22:26.468Z,10
2017-09-17T16:23:35.492Z,10
2017-09-17T16:24:44.506Z,10
2017-09-17T16:25:53.843Z,10
2017-09-17T16:27:03.497Z,10
2017-09-17T16:28:12.837Z,10
2017-09-17T16:29:23.128Z,10